Pine Level, Alabama
Current Conditions -  °F | °C
As of 6:53 AM on Wednesday 22 Oct 2014 (Local Time) from KTOI Reporting Station
Clear Clear  
Wind Chill: 45°   Ceiling: Unl
Heat Index: 45°   Visibility: 10mi
Dew Point: 42°   Wind: 0mph
Humidity: 90%   Direction: NA
Pressure: 30.1"   Gusts: NA
Location:  32.07°N, 86.06°W
Report Text: KTOI 221153Z AUTO 00000KT 10SM CLR 07/06 A3010 RMK AO2 SLP189 T00720056 10111 20067 53022
Loading
Personal Weather Stations






























Interactive Weather Map
Tropical Storm Tracking
New forecast layout! Learn more

10-Day Weather Forecast

Advertisements
Track Severe Weather on mobile